Capitol Logistics 2310

Operating for ATN



KBWI
Baltimore/Washington International Thurgood Marshall Airport
Baltimore, Maryland
BGTL
Thule Air Base
Pituffik,

Activity Log

Date Flight Route Aircraft Duration
04/12/2021 CPX2310 PALEO3 SIE J55 PQI YYY YBC ARAME YWK J583 YDP PEPKI 65N059W IKNOG 70N062W MANSE LUCIE WENSA B752 5h 50m

Route Details

Aircraft Information
Primary:
Backup: Not Available
Route Data
Distance: 2255nm
Duration: 5h 20m
Recm'd Route: PALEO3 SIE J55 PQI YYY YBC ARAME YWK J583 YDP PEPKI 6559N IKNOG 7057N UP TOMAS SAVIS THT
Origin Wx: KBWI 141854Z 19003KT 7SM -RA FEW047 BKN060 OVC095 16/12 A3002 RMK AO2 RAB08 SLP164 P0001 T01560117
Dest. Wx: BGTL 141756Z AUTO 09003KT 9999 CLR M19/M19 A3019 RMK AO2 SLP215 T11861188 11177 21224 58002 TSNO $
Notes: USTRANSCOM CONTRACT FLIGHT | 1X PER WEEK | PAYLOAD LIMITED | ETOPS